Time;durP1;ratioP1;P1;durP2;ratioP2;P2;SDS_P1;SDS_P2;PMS_P1;PMS_P2;Temp;Humidity;BMP_temperature;BMP_pressure;BME280_temperature;BME280_humidity;BME280_pressure;Samples;Min_cycle;Max_cycle;Signal;HPM_P1;HPM_P2
2023/01/08 00:01:21;;;;;;;2.25;1.00;;;21.00;68.10;;;;;;5032837;28;20033;-77
2023/01/08 00:03:46;;;;;;;1.73;0.63;;;21.00;68.20;;;;;;5031337;28;20480;-77
2023/01/08 00:06:15;;;;;;;4.75;1.05;;;20.90;68.40;;;;;;5032116;28;20028;-77
2023/01/08 00:08:40;;;;;;;2.00;0.70;;;20.80;68.60;;;;;;5031053;28;20047;-77
2023/01/08 00:11:06;;;;;;;2.25;0.70;;;20.80;68.80;;;;;;5031640;28;20554;-77
2023/01/08 00:13:32;;;;;;;3.38;0.88;;;20.70;69.00;;;;;;5031709;28;20112;-77
2023/01/08 00:16:02;;;;;;;4.20;1.10;;;20.60;69.20;;;;;;5031670;28;20029;-77
2023/01/08 00:18:28;;;;;;;5.53;1.10;;;20.60;69.40;;;;;;5031635;28;20369;-77
2023/01/08 00:20:53;;;;;;;1.67;0.77;;;20.60;69.60;;;;;;5031584;28;20018;-77
2023/01/08 00:23:19;;;;;;;4.80;0.90;;;20.50;69.90;;;;;;5036595;28;20048;-77
2023/01/08 00:25:45;;;;;;;4.70;0.90;;;20.40;70.00;;;;;;5035237;28;20529;-77
2023/01/08 00:28:10;;;;;;;2.33;0.70;;;20.40;70.20;;;;;;5035519;28;20029;-77
2023/01/08 00:30:36;;;;;;;1.90;0.60;;;20.40;70.40;;;;;;5035336;28;20051;-77
2023/01/08 00:33:02;;;;;;;1.80;0.70;;;20.30;70.50;;;;;;5035366;28;20095;-77
2023/01/08 00:35:27;;;;;;;2.45;0.85;;;20.30;70.60;;;;;;5036204;28;20025;-77
2023/01/08 00:37:53;;;;;;;4.20;0.75;;;20.20;70.70;;;;;;5036294;28;20076;-77
2023/01/08 00:40:19;;;;;;;3.35;1.17;;;20.20;70.80;;;;;;5018934;28;20046;-77
2023/01/08 00:42:45;;;;;;;2.58;0.90;;;20.10;70.90;;;;;;5035016;28;20663;-77
2023/01/08 00:45:11;;;;;;;1.95;0.82;;;20.10;71.00;;;;;;5036393;28;20126;-77
2023/01/08 00:47:36;;;;;;;1.75;0.75;;;20.10;71.10;;;;;;5034507;28;20043;-77
2023/01/08 00:50:02;;;;;;;4.65;0.80;;;20.00;71.20;;;;;;5035289;28;20104;-77
2023/01/08 00:52:28;;;;;;;2.13;1.00;;;20.00;71.20;;;;;;5035104;28;20464;-77
2023/01/08 00:54:54;;;;;;;1.73;0.50;;;19.90;71.30;;;;;;5034894;28;20025;-77
2023/01/08 00:57:19;;;;;;;3.30;0.82;;;19.90;71.40;;;;;;5035693;28;20555;-77
2023/01/08 00:59:45;;;;;;;1.85;0.90;;;19.80;71.40;;;;;;5034772;28;20049;-77
2023/01/08 01:02:11;;;;;;;1.35;0.60;;;19.80;71.50;;;;;;5035576;28;20056;-77
2023/01/08 01:04:36;;;;;;;2.03;0.80;;;19.80;71.60;;;;;;5035966;28;20112;-77
2023/01/08 01:07:02;;;;;;;2.25;0.63;;;19.70;71.70;;;;;;5034560;28;20052;-77
2023/01/08 01:09:28;;;;;;;3.05;1.67;;;19.70;71.80;;;;;;5035578;28;20030;-77
2023/01/08 01:11:53;;;;;;;1.77;0.65;;;19.70;71.80;;;;;;5034529;28;20076;-77
2023/01/08 01:14:19;;;;;;;1.17;0.70;;;19.60;72.00;;;;;;5035713;28;20455;-77
2023/01/08 01:16:47;;;;;;;2.42;0.90;;;19.60;72.00;;;;;;5035277;28;20499;-77
2023/01/08 01:19:13;;;;;;;2.28;1.05;;;19.60;72.00;;;;;;5035828;28;20018;-77
2023/01/08 01:21:39;;;;;;;2.40;0.75;;;19.50;72.00;;;;;;5034209;28;20041;-77
2023/01/08 01:24:05;;;;;;;3.00;1.02;;;19.50;72.10;;;;;;5034315;28;20479;-77
2023/01/08 01:26:31;;;;;;;2.22;0.70;;;19.50;72.10;;;;;;5034377;28;20498;-77
2023/01/08 01:28:56;;;;;;;3.60;1.00;;;19.50;72.20;;;;;;5034006;28;20033;-77
2023/01/08 01:31:23;;;;;;;2.08;0.98;;;19.40;72.30;;;;;;5035088;28;20108;-76
2023/01/08 01:33:49;;;;;;;1.73;0.70;;;19.40;72.40;;;;;;5033650;28;20017;-77
2023/01/08 01:36:15;;;;;;;5.50;0.73;;;19.40;72.50;;;;;;5034107;28;20495;-76
2023/01/08 01:38:44;;;;;;;1.45;0.50;;;19.40;72.50;;;;;;5033868;28;20071;-76
2023/01/08 01:41:30;;;;;;;3.80;1.00;;;19.30;72.50;;;;;;5034103;28;20388;-76
2023/01/08 01:43:57;;;;;;;3.42;0.85;;;19.30;72.60;;;;;;5033984;28;20032;-76
2023/01/08 01:46:30;;;;;;;2.95;1.02;;;19.20;72.60;;;;;;5034780;28;20029;-76
2023/01/08 01:48:58;;;;;;;3.47;0.95;;;19.30;72.70;;;;;;5033944;28;20018;-76
2023/01/08 01:51:27;;;;;;;1.15;0.70;;;19.20;72.60;;;;;;5017256;28;20033;-76
2023/01/08 01:53:53;;;;;;;4.95;0.95;;;19.20;73.70;;;;;;5030634;28;20026;-76
2023/01/08 01:56:19;;;;;;;1.15;0.77;;;19.20;72.80;;;;;;5013960;28;20025;-76
2023/01/08 01:58:44;;;;;;;1.83;0.70;;;19.10;72.70;;;;;;5013815;28;20030;-76
2023/01/08 02:01:10;;;;;;;1.60;0.70;;;19.10;72.90;;;;;;5014916;28;20018;-76
2023/01/08 02:03:37;;;;;;;3.25;0.90;;;19.10;72.90;;;;;;5013635;28;20042;-76
2023/01/08 02:06:21;;;;;;;3.08;0.80;;;19.10;73.00;;;;;;5013660;28;20026;-76
2023/01/08 02:09:11;;;;;;;2.58;0.73;;;19.00;73.10;;;;;;5014850;28;20072;-77
2023/01/08 02:12:16;;;;;;;3.92;0.77;;;19.00;73.10;;;;;;5014760;28;20030;-77
2023/01/08 02:15:06;;;;;;;1.70;0.93;;;19.00;73.20;;;;;;5014515;28;20084;-77
2023/01/08 02:17:48;;;;;;;3.25;0.82;;;18.90;73.20;;;;;;5014530;28;20036;-76
2023/01/08 02:20:19;;;;;;;1.10;0.65;;;18.90;73.50;;;;;;5013472;28;20021;-76
2023/01/08 02:23:10;;;;;;;2.20;0.65;;;18.80;73.50;;;;;;5013487;28;20026;-77
2023/01/08 02:25:36;;;;;;;1.40;0.52;;;18.80;73.50;;;;;;5014814;28;20133;-76
2023/01/08 02:28:03;;;;;;;2.38;0.75;;;18.80;73.60;;;;;;5014702;28;20029;-77
2023/01/08 02:30:28;;;;;;;2.03;0.70;;;18.80;73.80;;;;;;5013134;28;20022;-77
2023/01/08 02:32:54;;;;;;;1.48;0.70;;;18.80;73.80;;;;;;5013396;28;20052;-77
2023/01/08 02:35:20;;;;;;;3.13;1.13;;;18.70;73.80;;;;;;5014621;28;20481;-77
2023/01/08 02:37:45;;;;;;;1.65;0.50;;;18.70;73.80;;;;;;5014471;28;20034;-77
2023/01/08 02:40:25;;;;;;;1.73;0.77;;;18.70;73.80;;;;;;5013348;28;20026;-77
2023/01/08 02:43:02;;;;;;;2.60;0.50;;;18.70;73.90;;;;;;5013034;28;20097;-77
2023/01/08 02:45:49;;;;;;;3.03;0.63;;;18.70;75.00;;;;;;5013491;28;20049;-77
2023/01/08 02:48:35;;;;;;;2.22;0.70;;;18.60;73.90;;;;;;5013680;28;20461;-77
2023/01/08 02:51:19;;;;;;;1.25;0.50;;;18.60;74.00;;;;;;5013299;28;20168;-77
2023/01/08 02:53:46;;;;;;;2.15;0.70;;;18.60;74.10;;;;;;5014885;28;20101;-77
2023/01/08 02:56:14;;;;;;;2.45;0.75;;;18.60;74.20;;;;;;5016324;28;20017;-77
2023/01/08 02:58:39;;;;;;;2.42;0.80;;;18.50;74.10;;;;;;5016200;28;20049;-77
2023/01/08 03:01:07;;;;;;;1.45;0.68;;;18.50;74.10;;;;;;5032672;28;20049;-77
2023/01/08 03:03:33;;;;;;;1.67;0.70;;;18.50;74.20;;;;;;5016275;28;20041;-77
2023/01/08 03:06:03;;;;;;;2.38;0.60;;;18.50;74.40;;;;;;5016187;28;20022;-77
2023/01/08 03:08:29;;;;;;;1.23;0.68;;;18.50;74.40;;;;;;5032626;28;20026;-77
2023/01/08 03:11:14;;;;;;;2.03;0.93;;;18.50;74.40;;;;;;5016024;28;20024;-77
2023/01/08 03:13:49;;;;;;;1.88;0.73;;;18.50;74.60;;;;;;5032083;28;20029;-77
2023/01/08 03:16:33;;;;;;;1.95;0.80;;;18.40;74.70;;;;;;5033483;28;20037;-77
2023/01/08 03:19:04;;;;;;;1.92;0.80;;;18.40;74.70;;;;;;5032476;28;20028;-77
2023/01/08 03:21:30;;;;;;;2.00;0.70;;;18.40;74.70;;;;;;5016192;28;20075;-77
2023/01/08 03:23:56;;;;;;;1.83;0.90;;;18.40;75.80;;;;;;5032101;28;20021;-77
2023/01/08 03:26:23;;;;;;;1.60;0.60;;;18.30;74.80;;;;;;5032259;28;20064;-77
2023/01/08 03:28:51;;;;;;;1.52;0.75;;;18.30;74.90;;;;;;5015868;28;20052;-76
2023/01/08 03:31:17;;;;;;;3.63;0.98;;;18.40;75.00;;;;;;5032307;28;20440;-76
2023/01/08 03:33:43;;;;;;;1.67;0.70;;;18.30;75.10;;;;;;5015723;28;20029;-76
2023/01/08 03:36:08;;;;;;;2.38;0.75;;;18.30;75.10;;;;;;5015694;28;20033;-76
2023/01/08 03:38:37;;;;;;;1.63;0.60;;;18.30;75.10;;;;;;5015707;28;20029;-76
2023/01/08 03:41:13;;;;;;;2.13;0.70;;;18.30;75.20;;;;;;5015676;28;20025;-76
2023/01/08 03:43:39;;;;;;;3.08;0.82;;;18.20;75.20;;;;;;5032995;28;20022;-76
2023/01/08 03:46:08;;;;;;;1.23;0.68;;;18.20;75.20;;;;;;5031654;28;20404;-76
2023/01/08 03:48:33;;;;;;;1.25;0.70;;;18.20;75.20;;;;;;5031821;28;20112;-76
2023/01/08 03:50:59;;;;;;;3.03;0.63;;;18.20;75.30;;;;;;5031854;28;20486;-77
2023/01/08 03:53:25;;;;;;;1.85;0.98;;;18.20;75.30;;;;;;5033183;28;20496;-77
2023/01/08 03:55:50;;;;;;;1.13;0.70;;;18.20;75.30;;;;;;5012569;28;20485;-77
2023/01/08 03:58:16;;;;;;;2.30;0.50;;;18.10;75.30;;;;;;5012825;28;20058;-77
2023/01/08 04:00:42;;;;;;;2.03;0.90;;;18.10;75.30;;;;;;5012147;28;20053;-77
2023/01/08 04:03:08;;;;;;;2.25;0.82;;;18.10;75.40;;;;;;5011814;28;20092;-77
2023/01/08 04:05:34;;;;;;;2.83;0.50;;;18.10;75.40;;;;;;5011858;28;20384;-77
2023/01/08 04:07:59;;;;;;;2.15;0.60;;;18.10;75.40;;;;;;5012044;28;20026;-77
2023/01/08 04:10:25;;;;;;;3.03;0.60;;;18.10;75.40;;;;;;5012992;28;20473;-77
2023/01/08 04:12:51;;;;;;;1.55;0.70;;;18.00;75.50;;;;;;5011688;28;20026;-77
2023/01/08 04:15:17;;;;;;;2.42;1.33;;;18.00;75.50;;;;;;5012024;28;20030;-77
2023/01/08 04:17:42;;;;;;;1.95;0.73;;;18.00;75.60;;;;;;5012017;28;20058;-77
2023/01/08 04:20:08;;;;;;;2.35;0.70;;;18.00;75.50;;;;;;5029512;28;20041;-77
2023/01/08 04:22:34;;;;;;;1.48;0.60;;;18.00;75.60;;;;;;5031501;28;20018;-77
2023/01/08 04:25:00;;;;;;;3.17;0.93;;;18.00;75.60;;;;;;5032509;28;20107;-77
2023/01/08 04:27:26;;;;;;;0.90;0.40;;;18.00;75.60;;;;;;5031355;28;20068;-77
2023/01/08 04:29:51;;;;;;;2.90;1.00;;;18.00;75.70;;;;;;5032794;28;20037;-76
2023/01/08 04:32:17;;;;;;;2.67;0.57;;;17.90;75.70;;;;;;5032923;28;20025;-76
2023/01/08 04:34:43;;;;;;;2.50;0.95;;;17.90;75.80;;;;;;5031277;28;20076;-76
2023/01/08 04:37:08;;;;;;;2.88;0.80;;;17.90;75.80;;;;;;5031491;28;20096;-76
2023/01/08 04:39:34;;;;;;;1.80;0.88;;;17.90;75.70;;;;;;5031250;28;20160;-76
2023/01/08 04:42:00;;;;;;;1.48;0.60;;;17.90;75.70;;;;;;5032489;28;20032;-76
2023/01/08 04:44:25;;;;;;;2.97;0.75;;;17.90;75.80;;;;;;5031506;28;20036;-76
2023/01/08 04:46:51;;;;;;;0.88;0.50;;;17.90;76.90;;;;;;5031110;28;20443;-76
2023/01/08 04:49:16;;;;;;;1.55;0.50;;;17.90;75.80;;;;;;5030961;28;20541;-76
2023/01/08 04:51:42;;;;;;;1.38;0.57;;;17.90;75.80;;;;;;5032415;28;20101;-76
2023/01/08 04:54:08;;;;;;;2.08;0.60;;;17.80;75.80;;;;;;5030986;28;20380;-76
2023/01/08 04:56:34;;;;;;;2.03;0.75;;;17.80;75.70;;;;;;5014958;28;20026;-76
2023/01/08 04:58:59;;;;;;;1.15;0.52;;;17.80;75.70;;;;;;5032413;28;20030;-76
2023/01/08 05:01:25;;;;;;;1.10;0.60;;;17.80;75.90;;;;;;5032451;28;20083;-76
2023/01/08 05:03:55;;;;;;;1.42;0.60;;;17.80;75.90;;;;;;5014935;28;20061;-76
2023/01/08 05:06:21;;;;;;;1.02;0.63;;;17.80;75.80;;;;;;5031144;28;20052;-76
2023/01/08 05:08:46;;;;;;;2.13;0.60;;;17.80;75.90;;;;;;5034105;28;20034;-76
2023/01/08 05:11:12;;;;;;;1.35;0.70;;;17.80;75.90;;;;;;5035947;28;20376;-76
2023/01/08 05:13:37;;;;;;;1.58;0.77;;;17.70;75.90;;;;;;5035749;28;20029;-76
2023/01/08 05:16:03;;;;;;;2.63;0.70;;;17.70;76.10;;;;;;5034458;28;20400;-76
2023/01/08 05:18:29;;;;;;;2.25;0.75;;;17.70;76.00;;;;;;5034314;28;20090;-77
2023/01/08 05:21:01;;;;;;;1.42;0.60;;;17.70;76.00;;;;;;5017923;28;20026;-76
2023/01/08 05:23:28;;;;;;;1.83;0.63;;;17.70;76.10;;;;;;5034358;28;20025;-76
2023/01/08 05:26:01;;;;;;;2.03;0.52;;;17.70;76.20;;;;;;5034605;28;20138;-76
2023/01/08 05:28:26;;;;;;;;;;;17.70;76.20;;;;;;5034984;28;20136;-76
2023/01/08 05:30:52;;;;;;;2.13;0.70;;;17.60;76.10;;;;;;5034415;28;19995;-75
2023/01/08 05:33:18;;;;;;;1.35;0.50;;;17.70;76.20;;;;;;5034575;28;20107;-76
2023/01/08 05:35:44;;;;;;;1.05;0.50;;;17.60;76.10;;;;;;5017710;28;20037;-76
2023/01/08 05:38:10;;;;;;;1.13;0.50;;;17.60;76.20;;;;;;5033990;28;20160;-75
2023/01/08 05:40:35;;;;;;;2.25;0.63;;;17.60;76.20;;;;;;5035298;28;20032;-75
2023/01/08 05:43:01;;;;;;;1.23;0.50;;;17.60;76.20;;;;;;5035503;28;20035;-75
2023/01/08 05:45:27;;;;;;;1.38;0.60;;;17.60;76.20;;;;;;5017759;28;20022;-76
2023/01/08 05:47:53;;;;;;;1.52;0.60;;;17.60;76.30;;;;;;5035233;28;20037;-76
2023/01/08 05:50:18;;;;;;;2.15;0.75;;;17.60;76.20;;;;;;5033993;28;20033;-75
2023/01/08 05:52:44;;;;;;;1.23;0.50;;;17.50;76.20;;;;;;5034939;28;20027;-75
2023/01/08 05:55:10;;;;;;;2.13;0.40;;;17.50;76.20;;;;;;5021400;28;20483;-76
2023/01/08 05:57:35;;;;;;;1.88;0.68;;;17.50;76.30;;;;;;5014150;28;20520;-76
2023/01/08 06:00:07;;;;;;;2.33;0.70;;;17.50;76.30;;;;;;5013847;28;20113;-77
2023/01/08 06:02:32;;;;;;;2.70;0.75;;;17.50;76.40;;;;;;5013632;28;20140;-76
2023/01/08 06:04:58;;;;;;;2.45;0.77;;;17.50;76.40;;;;;;5013765;28;20488;-76
2023/01/08 06:07:24;;;;;;;2.25;0.50;;;17.40;76.40;;;;;;5014950;28;20030;-76
2023/01/08 06:09:50;;;;;;;1.38;0.47;;;17.40;76.40;;;;;;5013914;28;20026;-76
2023/01/08 06:12:15;;;;;;;2.45;0.70;;;17.40;76.50;;;;;;5014721;28;20496;-76
2023/01/08 06:14:41;;;;;;;1.98;0.50;;;17.40;76.50;;;;;;5013892;28;20424;-76
2023/01/08 06:17:06;;;;;;;2.50;0.55;;;17.40;76.50;;;;;;5014816;28;20053;-77
2023/01/08 06:19:32;;;;;;;1.83;0.70;;;17.40;76.50;;;;;;5013599;28;20076;-77
2023/01/08 06:21:58;;;;;;;1.13;0.60;;;17.40;76.50;;;;;;5013399;28;20026;-77
2023/01/08 06:24:23;;;;;;;1.10;0.50;;;17.40;76.60;;;;;;5013329;28;20029;-77
2023/01/08 06:26:49;;;;;;;0.65;0.43;;;17.40;76.50;;;;;;5013539;28;20021;-77
2023/01/08 06:29:14;;;;;;;1.75;0.70;;;17.30;76.50;;;;;;5014561;28;20113;-77
2023/01/08 06:31:40;;;;;;;1.33;0.50;;;17.40;76.70;;;;;;5014399;28;20380;-77
2023/01/08 06:34:06;;;;;;;1.30;0.65;;;17.30;76.70;;;;;;5013312;28;20369;-77
2023/01/08 06:36:31;;;;;;;1.85;0.65;;;17.30;76.80;;;;;;5013137;28;20029;-77
2023/01/08 06:38:57;;;;;;;2.55;0.65;;;17.30;76.80;;;;;;5013098;28;20034;-77
2023/01/08 06:41:23;;;;;;;1.88;0.52;;;17.30;76.80;;;;;;5014486;28;20030;-76
2023/01/08 06:43:48;;;;;;;1.85;0.55;;;17.30;77.00;;;;;;5013281;28;20022;-77
2023/01/08 06:46:14;;;;;;;0.95;0.55;;;17.30;77.00;;;;;;5019438;28;20048;-77
2023/01/08 06:48:40;;;;;;;2.50;0.70;;;17.20;76.90;;;;;;5033999;28;20412;-76
2023/01/08 06:51:05;;;;;;;3.75;0.43;;;17.20;76.90;;;;;;5033765;28;20055;-76
2023/01/08 06:53:31;;;;;;;2.25;0.70;;;17.20;78.00;;;;;;5032816;28;20037;-76
2023/01/08 06:55:57;;;;;;;2.42;0.60;;;17.20;76.90;;;;;;5032983;28;20088;-76
2023/01/08 06:58:26;;;;;;;2.72;0.73;;;17.20;76.90;;;;;;5033694;28;20033;-76
2023/01/08 07:00:52;;;;;;;1.13;0.50;;;17.20;78.00;;;;;;5032512;28;20022;-76
2023/01/08 07:03:17;;;;;;;1.98;0.70;;;17.20;77.00;;;;;;5032397;28;20049;-76
2023/01/08 07:05:43;;;;;;;1.33;0.60;;;17.20;77.00;;;;;;5033361;28;20030;-76
2023/01/08 07:08:18;;;;;;;2.70;0.65;;;17.20;77.10;;;;;;5033645;28;20029;-76
2023/01/08 07:10:44;;;;;;;1.55;0.68;;;17.20;78.10;;;;;;5033479;28;20095;-76
2023/01/08 07:13:11;;;;;;;1.52;0.50;;;17.20;77.20;;;;;;5032481;28;20535;-77
2023/01/08 07:15:37;;;;;;;1.63;0.57;;;17.20;77.20;;;;;;5032460;28;20476;-77
2023/01/08 07:18:07;;;;;;;1.42;0.50;;;17.10;77.10;;;;;;5032211;28;20048;-77
2023/01/08 07:20:33;;;;;;;1.77;0.55;;;17.10;78.20;;;;;;5032016;28;20097;-77
2023/01/08 07:23:06;;;;;;;1.33;0.60;;;17.20;77.20;;;;;;5032082;28;20030;-77
2023/01/08 07:25:32;;;;;;;1.15;0.45;;;17.10;77.20;;;;;;5015848;28;20021;-77
2023/01/08 07:27:58;;;;;;;4.78;0.70;;;17.10;77.20;;;;;;5033509;28;20079;-76
2023/01/08 07:30:24;;;;;;;2.85;0.88;;;17.10;77.20;;;;;;5032897;28;20021;-76
2023/01/08 07:32:50;;;;;;;1.20;0.80;;;17.10;77.30;;;;;;5032240;28;20388;-76
2023/01/08 07:35:15;;;;;;;1.67;0.60;;;17.10;77.50;;;;;;5032767;28;20021;-76
2023/01/08 07:37:41;;;;;;;1.42;0.60;;;17.10;77.40;;;;;;5033160;28;20047;-77
2023/01/08 07:40:09;;;;;;;1.92;0.60;;;17.10;77.50;;;;;;5032062;28;20025;-76
2023/01/08 07:42:35;;;;;;;2.08;0.50;;;17.10;77.50;;;;;;5033083;28;20025;-76
2023/01/08 07:45:01;;;;;;;1.95;0.95;;;17.00;77.40;;;;;;5031959;28;20029;-76
2023/01/08 07:47:26;;;;;;;2.05;0.70;;;17.00;77.50;;;;;;5032925;28;20029;-76
2023/01/08 07:49:52;;;;;;;2.03;0.50;;;17.00;77.50;;;;;;5032813;28;20124;-77
2023/01/08 07:52:17;;;;;;;1.42;0.50;;;17.00;77.60;;;;;;5032951;28;20061;-77
2023/01/08 07:54:43;;;;;;;1.95;0.70;;;17.00;77.60;;;;;;5031783;28;20064;-76
2023/01/08 07:57:09;;;;;;;1.33;0.70;;;17.00;77.60;;;;;;5031658;28;20033;-77
2023/01/08 07:59:34;;;;;;;2.38;0.75;;;17.00;77.60;;;;;;5031625;28;20100;-76
2023/01/08 08:02:00;;;;;;;1.65;0.50;;;17.00;77.60;;;;;;5032683;28;20072;-76
2023/01/08 08:04:26;;;;;;;3.22;1.00;;;17.00;77.70;;;;;;5032754;28;20037;-76
2023/01/08 08:06:52;;;;;;;2.05;0.50;;;17.00;77.70;;;;;;5032793;28;20032;-76
2023/01/08 08:09:18;;;;;;;2.78;0.60;;;17.00;77.80;;;;;;5031455;28;20079;-76
2023/01/08 08:11:43;;;;;;;3.17;0.75;;;16.90;77.40;;;;;;5032729;28;20399;-76
2023/01/08 08:14:09;;;;;;;1.33;0.60;;;16.90;77.40;;;;;;5032444;28;20555;-76
2023/01/08 08:16:35;;;;;;;3.72;0.60;;;16.90;77.40;;;;;;5032644;28;20041;-76
2023/01/08 08:19:00;;;;;;;3.75;0.80;;;16.90;77.60;;;;;;5032597;28;20061;-76
2023/01/08 08:21:28;;;;;;;1.95;0.45;;;16.90;77.70;;;;;;5031465;28;20112;-76
2023/01/08 08:23:54;;;;;;;3.22;0.70;;;16.90;77.70;;;;;;5031238;28;20072;-76
2023/01/08 08:26:19;;;;;;;2.00;0.60;;;16.90;77.80;;;;;;5031283;28;20468;-76
2023/01/08 08:28:45;;;;;;;1.67;0.43;;;16.90;77.80;;;;;;5031482;28;20040;-76
2023/01/08 08:31:11;;;;;;;1.52;0.50;;;16.90;77.90;;;;;;5032594;28;20117;-76
2023/01/08 08:33:36;;;;;;;1.75;0.70;;;16.90;77.90;;;;;;5032540;28;20441;-76
2023/01/08 08:36:02;;;;;;;2.58;0.75;;;16.90;77.90;;;;;;5032311;28;20037;-76
2023/01/08 08:38:28;;;;;;;1.25;0.52;;;16.90;77.80;;;;;;5032195;28;20060;-75
2023/01/08 08:40:53;;;;;;;2.20;0.68;;;16.90;77.90;;;;;;5031168;28;20026;-76
2023/01/08 08:43:19;;;;;;;5.80;1.02;;;16.80;77.90;;;;;;5035067;28;20021;-76
2023/01/08 08:45:45;;;;;;;2.53;1.02;;;16.80;77.90;;;;;;5034835;28;20021;-76
2023/01/08 08:48:10;;;;;;;2.95;1.05;;;16.80;78.00;;;;;;5036157;28;20037;-76
2023/01/08 08:50:37;;;;;;;2.83;1.08;;;16.80;77.70;;;;;;5034763;28;20037;-76
2023/01/08 08:53:04;;;;;;;2.42;0.90;;;16.80;76.70;;;;;;5034841;28;20510;-76
2023/01/08 08:55:29;;;;;;;6.43;1.00;;;16.80;76.90;;;;;;5018577;28;20036;-76
2023/01/08 08:58:02;;;;;;;1.52;0.77;;;16.80;77.00;;;;;;5014979;28;20026;-76
2023/01/08 09:00:27;;;;;;;2.90;0.80;;;16.80;77.20;;;;;;5015027;28;20029;-76
2023/01/08 09:02:53;;;;;;;1.85;0.65;;;16.80;77.30;;;;;;5015975;28;20423;-76
2023/01/08 09:05:19;;;;;;;3.58;0.80;;;16.80;77.20;;;;;;5016195;28;20026;-76
2023/01/08 09:07:44;;;;;;;5.22;0.82;;;16.80;77.40;;;;;;5016240;28;20022;-76
2023/01/08 09:10:11;;;;;;;1.45;0.52;;;16.80;77.40;;;;;;5020713;28;20049;-76
2023/01/08 09:12:37;;;;;;;3.33;0.80;;;16.80;77.40;;;;;;5035116;28;20369;-76
2023/01/08 09:15:03;;;;;;;2.20;0.80;;;16.70;77.50;;;;;;5035149;28;20061;-76
2023/01/08 09:17:29;;;;;;;6.60;1.00;;;16.70;77.50;;;;;;5034888;28;20480;-76
2023/01/08 09:19:54;;;;;;;3.80;0.98;;;16.70;77.50;;;;;;5033205;28;20026;-76
2023/01/08 09:22:20;;;;;;;1.33;0.70;;;16.70;77.60;;;;;;5033719;28;20049;-76
2023/01/08 09:24:46;;;;;;;3.25;0.85;;;16.70;77.60;;;;;;5034896;28;20021;-76
2023/01/08 09:27:12;;;;;;;5.15;1.00;;;16.70;77.70;;;;;;5035121;28;20028;-75
2023/01/08 09:29:37;;;;;;;4.72;0.90;;;16.70;77.70;;;;;;5034781;28;20439;-76
2023/01/08 09:32:06;;;;;;;3.08;0.82;;;16.70;77.70;;;;;;5033677;28;20030;-76
2023/01/08 09:34:32;;;;;;;3.80;0.88;;;16.70;77.60;;;;;;5033689;28;20025;-76
2023/01/08 09:36:57;;;;;;;2.40;0.90;;;16.70;77.60;;;;;;5034714;28;20561;-76
2023/01/08 09:39:23;;;;;;;3.15;0.60;;;16.70;77.70;;;;;;5017085;28;20038;-76
2023/01/08 09:41:49;;;;;;;2.20;0.68;;;16.70;77.70;;;;;;5033733;28;20021;-76
2023/01/08 09:44:19;;;;;;;3.38;0.82;;;16.60;77.60;;;;;;5034337;28;20033;-76
2023/01/08 09:46:45;;;;;;;4.43;0.70;;;16.60;77.70;;;;;;5033166;28;20025;-76
2023/01/08 09:49:14;;;;;;;2.88;0.68;;;16.60;77.70;;;;;;5033545;28;20025;-76
2023/01/08 09:51:39;;;;;;;2.13;0.77;;;16.60;77.60;;;;;;5033476;28;20021;-76
2023/01/08 09:54:06;;;;;;;2.85;0.70;;;16.70;77.80;;;;;;5029447;28;20037;-76
2023/01/08 09:56:35;;;;;;;4.07;0.95;;;16.60;77.80;;;;;;5013563;28;20014;-76
2023/01/08 09:59:02;;;;;;;3.17;0.93;;;16.60;77.90;;;;;;5013212;28;20044;-76
2023/01/08 10:01:29;;;;;;;6.10;0.73;;;16.60;77.90;;;;;;5013416;28;20523;-76
2023/01/08 10:03:59;;;;;;;2.22;0.80;;;16.60;78.00;;;;;;5013159;28;20053;-76
2023/01/08 10:06:25;;;;;;;2.35;0.60;;;16.60;78.00;;;;;;5013470;28;20026;-76
2023/01/08 10:08:52;;;;;;;1.95;0.50;;;16.60;78.10;;;;;;5014459;28;20030;-76
2023/01/08 10:11:18;;;;;;;2.80;0.68;;;16.50;78.10;;;;;;5013219;28;20548;-76
2023/01/08 10:13:49;;;;;;;3.40;0.68;;;16.60;78.10;;;;;;5013012;28;20547;-76
2023/01/08 10:16:23;;;;;;;2.47;0.75;;;16.50;78.00;;;;;;5014299;28;20033;-75
2023/01/08 10:18:49;;;;;;;3.00;0.80;;;16.50;78.00;;;;;;5013116;28;20017;-76
2023/01/08 10:21:15;;;;;;;3.63;0.68;;;16.60;78.10;;;;;;5014151;28;20373;-76
2023/01/08 10:23:52;;;;;;;3.42;1.00;;;16.50;78.10;;;;;;5014122;28;20037;-76
2023/01/08 10:26:29;;;;;;;2.30;0.80;;;16.50;78.20;;;;;;5012729;28;20439;-76
2023/01/08 10:29:14;;;;;;;1.90;0.93;;;16.50;78.20;;;;;;5012642;28;20448;-76
2023/01/08 10:31:58;;;;;;;3.97;0.70;;;16.50;78.30;;;;;;5012917;28;20411;-76
2023/01/08 10:34:29;;;;;;;1.83;0.85;;;16.50;78.20;;;;;;5012915;28;20087;-76
2023/01/08 10:36:55;;;;;;;1.95;0.77;;;16.50;78.20;;;;;;5012601;28;20032;-76
2023/01/08 10:39:24;;;;;;;4.00;0.85;;;16.50;78.20;;;;;;5012522;28;20022;-76
2023/01/08 10:41:52;;;;;;;1.55;0.60;;;16.50;78.20;;;;;;5012850;28;20472;-76
2023/01/08 10:44:18;;;;;;;2.30;0.73;;;16.50;78.20;;;;;;5012284;28;20022;-76
2023/01/08 10:46:47;;;;;;;2.22;0.52;;;16.50;78.10;;;;;;5022103;28;20472;-76
2023/01/08 10:49:26;;;;;;;2.67;0.65;;;16.50;78.10;;;;;;5032288;28;20028;-76
2023/01/08 10:51:52;;;;;;;2.20;0.80;;;16.50;78.10;;;;;;5033561;28;20106;-76
2023/01/08 10:54:44;;;;;;;5.85;0.63;;;16.50;78.20;;;;;;5025601;28;20097;-76
2023/01/08 10:57:28;;;;;;;2.03;0.80;;;16.50;78.20;;;;;;5012950;28;20040;-76
2023/01/08 10:59:54;;;;;;;2.83;0.88;;;16.50;78.30;;;;;;5012425;28;20058;-76
2023/01/08 11:02:29;;;;;;;3.70;0.65;;;16.40;78.30;;;;;;5011911;28;20080;-76
2023/01/08 11:04:55;;;;;;;4.22;0.73;;;16.40;78.30;;;;;;5011626;28;20034;-75
2023/01/08 11:07:21;;;;;;;1.23;0.68;;;16.40;78.30;;;;;;5012121;28;20034;-76
2023/01/08 11:09:48;;;;;;;2.08;0.68;;;16.40;78.40;;;;;;5012168;28;20021;-76
2023/01/08 11:12:39;;;;;;;3.20;0.73;;;16.40;78.40;;;;;;5012193;28;20032;-76
2023/01/08 11:15:14;;;;;;;2.33;0.63;;;16.40;78.40;;;;;;4995726;28;20484;-76
2023/01/08 11:17:39;;;;;;;1.58;0.43;;;16.40;78.40;;;;;;5013020;28;20030;-76
2023/01/08 11:20:07;;;;;;;2.55;0.57;;;16.40;78.50;;;;;;5012140;28;20491;-76
2023/01/08 11:22:33;;;;;;;2.60;0.77;;;16.40;78.50;;;;;;5012070;28;20028;-76
2023/01/08 11:24:58;;;;;;;2.55;0.60;;;16.40;78.50;;;;;;5011992;28;20017;-76
2023/01/08 11:27:25;;;;;;;0.90;0.43;;;16.40;78.50;;;;;;5014908;28;20105;-76
2023/01/08 11:30:11;;;;;;;2.85;0.90;;;16.40;78.60;;;;;;5031858;28;20029;-76
2023/01/08 11:32:48;;;;;;;1.98;0.50;;;16.30;78.50;;;;;;5031605;28;20022;-75
2023/01/08 11:35:20;;;;;;;4.20;0.60;;;16.40;78.60;;;;;;5033121;28;20033;-76
2023/01/08 11:37:59;;;;;;;3.35;0.60;;;16.30;78.50;;;;;;5031928;28;20075;-76
2023/01/08 11:40:45;;;;;;;4.30;0.70;;;16.40;78.50;;;;;;5031730;28;20702;-76
2023/01/08 11:43:21;;;;;;;2.47;0.55;;;16.30;78.50;;;;;;5032147;28;20018;-76
2023/01/08 11:45:53;;;;;;;2.03;0.80;;;16.30;78.50;;;;;;5031741;28;20377;-76
2023/01/08 11:48:30;;;;;;;2.15;0.60;;;16.30;78.50;;;;;;5031602;28;20506;-76
2023/01/08 11:51:27;;;;;;;1.50;0.70;;;16.30;78.60;;;;;;5031844;28;20029;-76
2023/01/08 11:54:15;;;;;;;2.25;0.70;;;16.30;78.50;;;;;;5032030;28;20053;-76
2023/01/08 11:56:52;;;;;;;1.33;0.50;;;16.30;78.60;;;;;;5031816;28;20552;-77
2023/01/08 11:59:37;;;;;;;1.85;0.60;;;16.30;78.70;;;;;;5032957;28;20084;-76
2023/01/08 12:02:26;;;;;;;2.17;0.77;;;16.30;78.70;;;;;;5032648;28;20115;-76
2023/01/08 12:05:30;;;;;;;1.80;0.63;;;16.30;78.70;;;;;;5033047;28;20022;-76
2023/01/08 12:08:19;;;;;;;0.95;0.40;;;16.30;78.70;;;;;;5031740;28;20022;-76
2023/01/08 12:11:01;;;;;;;5.95;0.93;;;16.30;78.70;;;;;;5032148;28;20116;-76
2023/01/08 12:13:58;;;;;;;0.95;0.50;;;16.30;78.70;;;;;;5032681;28;20021;-76
2023/01/08 12:16:46;;;;;;;1.42;0.70;;;16.30;78.80;;;;;;5032767;28;20411;-76
2023/01/08 12:19:27;;;;;;;1.27;0.60;;;16.20;78.70;;;;;;5035639;28;20103;-76
2023/01/08 12:21:52;;;;;;;3.00;0.63;;;16.20;78.70;;;;;;5036748;28;20025;-76
2023/01/08 12:24:41;;;;;;;1.15;0.63;;;16.20;78.80;;;;;;5036742;28;20143;-76
2023/01/08 12:27:22;;;;;;;3.10;0.65;;;16.20;78.80;;;;;;5035159;28;20365;-76
2023/01/08 12:30:07;;;;;;;3.95;0.60;;;16.20;78.80;;;;;;5035534;28;20014;-76
2023/01/08 12:32:53;;;;;;;1.80;0.50;;;16.20;78.80;;;;;;5036720;28;20100;-76
2023/01/08 12:35:28;;;;;;;2.10;0.68;;;16.20;77.30;;;;;;5036339;28;20037;-76
2023/01/08 12:37:58;;;;;;;2.88;0.50;;;16.20;77.60;;;;;;5035438;28;20025;-76
2023/01/08 12:40:34;;;;;;;1.20;0.50;;;16.20;77.20;;;;;;5034835;28;20091;-76
2023/01/08 12:43:02;;;;;;;1.50;0.52;;;16.20;77.20;;;;;;5035286;28;20017;-76
2023/01/08 12:45:29;;;;;;;1.35;0.50;;;16.10;77.10;;;;;;5034995;28;20010;-76
2023/01/08 12:48:03;;;;;;;2.90;0.57;;;16.10;76.90;;;;;;5035128;28;20041;-77
2023/01/08 12:50:35;;;;;;;3.30;0.85;;;16.10;77.00;;;;;;5019752;28;20028;-72
2023/01/08 12:53:22;;;;;;;1.88;0.60;;;16.10;76.90;;;;;;5034573;28;20040;-73
2023/01/08 12:56:10;;;;;;;3.45;1.42;;;16.10;76.80;;;;;;5035051;28;20017;-73
2023/01/08 12:58:45;;;;;;;4.05;1.30;;;16.10;76.80;;;;;;5033922;28;20037;-74